Time;durP1;ratioP1;P1;durP2;ratioP2;P2;SDS_P1;SDS_P2;PMS_P1;PMS_P2;Temp;Humidity;BMP_temperature;BMP_pressure;BME280_temperature;BME280_humidity;BME280_pressure;Samples;Min_cycle;Max_cycle;Signal;HPM_P1;HPM_P2
2022/03/15 00:00:08;;;;;;;5.10;1.48;;;4.80;41.00;;;;;;4965853;28;34275;-76
2022/03/15 00:02:34;;;;;;;1.02;0.93;;;4.80;41.20;;;;;;4966445;28;36323;-76
2022/03/15 00:05:01;;;;;;;1.17;1.08;;;4.70;41.30;;;;;;4985480;28;34041;-76
2022/03/15 00:07:27;;;;;;;3.33;1.20;;;4.70;41.40;;;;;;5002542;28;34214;-76
2022/03/15 00:09:53;;;;;;;1.40;1.20;;;4.70;41.30;;;;;;4986040;28;34230;-76
2022/03/15 00:12:19;;;;;;;2.40;1.40;;;4.70;41.30;;;;;;5001902;28;35632;-76
2022/03/15 00:14:45;;;;;;;2.70;1.20;;;4.70;41.40;;;;;;5003046;28;34425;-76
2022/03/15 00:17:12;;;;;;;1.63;1.30;;;4.70;41.40;;;;;;5002859;28;34271;-76
2022/03/15 00:19:39;;;;;;;1.85;1.10;;;4.70;41.30;;;;;;5003431;28;34236;-76
2022/03/15 00:22:05;;;;;;;2.42;1.60;;;4.70;41.50;;;;;;5001725;28;36088;-76
2022/03/15 00:24:33;;;;;;;1.73;1.10;;;4.70;41.50;;;;;;4985470;28;34113;-77
2022/03/15 00:27:00;;;;;;;4.43;1.30;;;4.70;41.50;;;;;;5001787;28;34119;-76
2022/03/15 00:29:26;;;;;;;2.88;1.33;;;4.70;42.30;;;;;;5001772;28;34167;-76
2022/03/15 00:31:52;;;;;;;2.30;1.55;;;4.70;41.50;;;;;;5001126;28;34335;-76
2022/03/15 00:34:18;;;;;;;6.18;1.52;;;4.70;41.70;;;;;;5000953;28;34408;-76
2022/03/15 00:36:45;;;;;;;1.50;1.40;;;4.70;41.60;;;;;;4988397;28;34500;-76
2022/03/15 00:39:11;;;;;;;3.95;1.60;;;4.70;41.80;;;;;;4988395;28;34293;-76
2022/03/15 00:41:37;;;;;;;2.13;1.33;;;4.70;41.80;;;;;;4988199;28;35781;-76
2022/03/15 00:44:03;;;;;;;3.33;1.30;;;4.70;41.80;;;;;;5004471;28;34420;-76
2022/03/15 00:46:29;;;;;;;2.92;1.20;;;4.70;42.00;;;;;;4988528;28;34205;-76
2022/03/15 00:48:55;;;;;;;1.92;1.38;;;4.70;42.00;;;;;;5004430;28;34214;-76
2022/03/15 00:51:21;;;;;;;3.30;1.70;;;4.60;41.90;;;;;;5004252;28;35826;-77
2022/03/15 00:53:47;;;;;;;1.80;1.40;;;4.70;41.90;;;;;;4988270;28;34160;-76
2022/03/15 00:56:13;;;;;;;10.30;1.65;;;4.70;41.90;;;;;;5006135;28;34210;-76
2022/03/15 00:58:39;;;;;;;2.20;1.20;;;4.70;42.00;;;;;;5004997;28;34235;-76
2022/03/15 01:01:05;;;;;;;4.82;1.67;;;4.70;42.00;;;;;;5004305;28;34468;-76
2022/03/15 01:03:31;;;;;;;2.03;1.50;;;4.70;42.00;;;;;;5004366;28;34199;-76
2022/03/15 01:05:58;;;;;;;1.85;1.50;;;4.60;41.80;;;;;;4971193;28;34277;-76
2022/03/15 01:08:24;;;;;;;2.47;1.10;;;4.60;41.80;;;;;;4988394;28;34682;-76
2022/03/15 01:10:50;;;;;;;2.33;1.27;;;4.60;42.10;;;;;;5003977;28;36706;-76
2022/03/15 01:13:16;;;;;;;3.50;1.63;;;4.60;42.20;;;;;;4987975;28;34060;-76
2022/03/15 01:15:43;;;;;;;1.20;1.10;;;4.60;42.20;;;;;;5004295;28;34116;-76
2022/03/15 01:18:10;;;;;;;4.80;1.35;;;4.60;42.20;;;;;;5004428;28;34260;-76
2022/03/15 01:20:40;;;;;;;1.52;1.40;;;4.60;42.20;;;;;;4987724;28;36374;-76
2022/03/15 01:23:06;;;;;;;3.20;1.75;;;4.60;43.00;;;;;;4988133;28;34179;-76
2022/03/15 01:25:33;;;;;;;3.67;1.42;;;4.60;42.20;;;;;;5004993;28;33826;-76
2022/03/15 01:28:00;;;;;;;4.28;1.45;;;4.60;42.30;;;;;;5004169;28;34443;-76
2022/03/15 01:30:27;;;;;;;1.88;1.30;;;4.60;42.20;;;;;;5005258;28;34588;-76
2022/03/15 01:32:53;;;;;;;3.35;1.65;;;4.60;42.10;;;;;;4988395;28;34513;-76
2022/03/15 01:35:19;;;;;;;2.17;1.40;;;4.70;42.10;;;;;;5004486;28;34183;-76
2022/03/15 01:37:45;;;;;;;3.13;1.52;;;4.70;42.10;;;;;;4988559;28;34164;-76
2022/03/15 01:40:11;;;;;;;3.10;1.40;;;4.70;42.00;;;;;;5004926;28;34236;-76
2022/03/15 01:42:38;;;;;;;2.92;1.65;;;4.70;42.10;;;;;;4988115;28;34104;-77
2022/03/15 01:45:05;;;;;;;2.80;1.50;;;4.70;42.10;;;;;;5004228;28;34488;-76
2022/03/15 01:47:31;;;;;;;1.92;1.50;;;4.70;42.10;;;;;;5002808;28;34156;-76
2022/03/15 01:49:57;;;;;;;2.55;1.45;;;4.70;42.30;;;;;;4987101;28;36064;-76
2022/03/15 01:52:23;;;;;;;2.03;1.60;;;4.70;42.40;;;;;;5005128;28;34478;-76
2022/03/15 01:54:50;;;;;;;2.17;1.48;;;4.70;42.50;;;;;;5004609;28;34254;-76
2022/03/15 01:57:16;;;;;;;2.10;1.60;;;4.70;42.70;;;;;;4987528;28;34251;-76
2022/03/15 01:59:43;;;;;;;2.88;1.45;;;4.70;42.60;;;;;;5004383;28;34084;-76
2022/03/15 02:02:09;;;;;;;3.58;1.48;;;4.70;42.60;;;;;;4987095;28;34064;-76
2022/03/15 02:04:37;;;;;;;1.60;1.38;;;4.70;42.60;;;;;;5003815;28;34108;-76
2022/03/15 02:07:05;;;;;;;2.53;1.10;;;4.80;42.50;;;;;;5003335;28;34424;-77
2022/03/15 02:09:31;;;;;;;4.22;1.48;;;4.80;42.40;;;;;;5003596;28;35138;-76
2022/03/15 02:11:58;;;;;;;3.42;1.15;;;4.80;42.40;;;;;;5003341;28;34108;-76
2022/03/15 02:14:25;;;;;;;1.20;1.10;;;4.80;42.40;;;;;;4987303;28;34364;-77
2022/03/15 02:16:51;;;;;;;1.63;1.30;;;4.80;42.40;;;;;;5004692;28;34282;-76
2022/03/15 02:19:17;;;;;;;2.58;1.23;;;4.80;42.60;;;;;;5003090;28;36687;-76
2022/03/15 02:21:43;;;;;;;1.63;1.13;;;4.80;42.80;;;;;;4986732;28;34402;-76
2022/03/15 02:24:09;;;;;;;1.85;1.23;;;4.80;43.10;;;;;;5003190;28;34242;-77
2022/03/15 02:26:35;;;;;;;1.48;1.15;;;4.80;43.10;;;;;;5003265;28;34319;-76
2022/03/15 02:29:01;;;;;;;1.60;1.40;;;4.80;43.20;;;;;;5002253;28;35844;-76
2022/03/15 02:31:27;;;;;;;1.67;1.42;;;4.80;43.30;;;;;;5002997;28;34213;-76
2022/03/15 02:33:53;;;;;;;2.40;1.58;;;4.80;43.60;;;;;;5002719;28;34098;-76
2022/03/15 02:36:19;;;;;;;2.78;1.25;;;4.80;43.60;;;;;;5004252;28;34416;-76
2022/03/15 02:38:46;;;;;;;1.67;1.45;;;4.90;43.50;;;;;;5002971;28;35722;-77
2022/03/15 02:41:14;;;;;;;3.47;1.70;;;4.90;43.60;;;;;;5002376;28;34339;-76
2022/03/15 02:43:42;;;;;;;2.88;1.55;;;4.90;43.50;;;;;;5004616;28;34202;-76
2022/03/15 02:46:08;;;;;;;1.77;1.58;;;4.90;43.50;;;;;;5003786;28;34297;-76
2022/03/15 02:48:35;;;;;;;1.67;1.45;;;4.90;43.50;;;;;;5002211;28;35892;-76
2022/03/15 02:51:08;;;;;;;3.10;1.30;;;4.90;43.80;;;;;;5003678;28;34411;-76
2022/03/15 02:53:36;;;;;;;2.03;1.40;;;4.90;43.90;;;;;;5002945;28;34466;-76
2022/03/15 02:56:04;;;;;;;3.17;1.45;;;5.00;43.90;;;;;;5003242;28;34186;-76
2022/03/15 02:58:31;;;;;;;2.45;1.55;;;5.00;43.60;;;;;;4985975;28;36824;-77
2022/03/15 03:00:57;;;;;;;3.22;1.48;;;5.00;43.70;;;;;;5002174;28;34251;-76
2022/03/15 03:03:23;;;;;;;2.20;1.48;;;5.00;43.60;;;;;;5002702;28;34222;-76
2022/03/15 03:05:49;;;;;;;3.08;1.20;;;5.00;43.50;;;;;;5002723;28;34515;-77
2022/03/15 03:08:16;;;;;;;1.42;1.30;;;5.10;43.60;;;;;;5002353;28;35752;-76
2022/03/15 03:10:42;;;;;;;1.65;1.35;;;5.10;43.60;;;;;;5002310;28;34259;-76
2022/03/15 03:13:08;;;;;;;1.40;1.30;;;5.10;43.50;;;;;;5003095;28;33830;-76
2022/03/15 03:15:34;;;;;;;2.30;1.40;;;5.10;43.30;;;;;;5003041;28;34370;-76
2022/03/15 03:18:00;;;;;;;2.00;1.17;;;5.10;43.30;;;;;;5002069;28;35765;-76
2022/03/15 03:20:27;;;;;;;1.60;1.30;;;5.10;43.60;;;;;;4986082;28;34393;-76
2022/03/15 03:22:54;;;;;;;6.93;1.67;;;5.10;43.60;;;;;;5002054;28;34351;-77
2022/03/15 03:25:20;;;;;;;1.20;1.00;;;5.10;43.70;;;;;;5002802;28;34029;-76
2022/03/15 03:27:47;;;;;;;1.70;1.50;;;5.10;43.70;;;;;;5002065;28;35809;-77
2022/03/15 03:30:14;;;;;;;2.00;1.73;;;5.10;43.70;;;;;;4986329;28;34362;-76
2022/03/15 03:32:41;;;;;;;2.70;2.00;;;5.10;43.80;;;;;;4985887;28;34204;-76
2022/03/15 03:35:07;;;;;;;4.45;1.98;;;5.10;44.00;;;;;;5002572;28;34186;-76
2022/03/15 03:37:34;;;;;;;2.83;1.90;;;5.10;44.10;;;;;;4986356;28;35296;-76
2022/03/15 03:40:07;;;;;;;1.83;1.70;;;5.10;44.10;;;;;;5002287;28;34384;-76
2022/03/15 03:42:34;;;;;;;2.60;1.45;;;5.20;44.10;;;;;;5002032;28;34076;-76
2022/03/15 03:45:00;;;;;;;1.92;1.70;;;5.20;44.00;;;;;;5003413;28;34116;-76
2022/03/15 03:47:26;;;;;;;4.03;1.70;;;5.20;44.10;;;;;;5001877;28;36648;-76
2022/03/15 03:49:52;;;;;;;4.13;1.95;;;5.20;44.00;;;;;;5002969;28;34267;-76
2022/03/15 03:52:18;;;;;;;3.58;1.95;;;5.20;44.10;;;;;;5001968;28;34401;-76
2022/03/15 03:54:44;;;;;;;3.90;1.63;;;5.20;44.00;;;;;;4986118;28;34313;-76
2022/03/15 03:57:11;;;;;;;2.22;1.80;;;5.20;43.90;;;;;;5001969;28;35500;-76
2022/03/15 03:59:37;;;;;;;2.63;1.90;;;5.20;43.90;;;;;;4986506;28;34278;-76
2022/03/15 04:02:03;;;;;;;3.00;1.67;;;5.30;44.10;;;;;;5001391;28;34389;-77
2022/03/15 04:04:29;;;;;;;2.33;1.63;;;5.30;44.00;;;;;;4985877;28;34505;-77
2022/03/15 04:06:55;;;;;;;4.25;1.75;;;5.30;44.00;;;;;;4984969;28;35939;-76
2022/03/15 04:09:23;;;;;;;3.50;1.90;;;5.30;44.00;;;;;;5002278;28;34179;-76
2022/03/15 04:11:49;;;;;;;3.25;1.33;;;5.30;43.90;;;;;;5004899;28;34254;-77
2022/03/15 04:14:15;;;;;;;3.80;1.70;;;5.30;44.10;;;;;;5005556;28;34146;-76
2022/03/15 04:16:42;;;;;;;2.38;1.60;;;5.30;44.00;;;;;;5005168;28;36854;-76
2022/03/15 04:19:09;;;;;;;2.28;2.08;;;5.30;44.00;;;;;;5004381;28;34194;-77
2022/03/15 04:21:35;;;;;;;2.03;1.50;;;5.30;44.00;;;;;;5005230;28;34390;-76
2022/03/15 04:24:01;;;;;;;2.25;1.60;;;5.30;44.10;;;;;;5004931;28;34505;-76
2022/03/15 04:26:27;;;;;;;3.72;1.50;;;5.30;44.10;;;;;;4972957;28;35937;-76
2022/03/15 04:28:54;;;;;;;3.35;2.10;;;5.30;44.20;;;;;;4988376;28;34049;-76
2022/03/15 04:31:21;;;;;;;2.92;2.13;;;5.30;44.10;;;;;;4989187;28;34037;-76
2022/03/15 04:33:47;;;;;;;2.38;1.80;;;5.40;44.40;;;;;;5005928;28;34447;-77
2022/03/15 04:36:13;;;;;;;3.28;1.90;;;5.40;44.40;;;;;;5005250;28;34346;-76
2022/03/15 04:38:39;;;;;;;2.58;1.98;;;5.40;44.50;;;;;;5004308;28;34334;-76
2022/03/15 04:41:05;;;;;;;1.58;1.48;;;5.40;44.40;;;;;;5006339;28;34394;-77
2022/03/15 04:43:32;;;;;;;1.98;1.63;;;5.40;44.40;;;;;;5004821;28;34361;-80
2022/03/15 04:45:59;;;;;;;2.42;1.88;;;5.50;44.60;;;;;;5003529;28;36513;-76
2022/03/15 04:48:25;;;;;;;4.82;1.90;;;5.40;44.60;;;;;;5004157;28;34150;-76
2022/03/15 04:50:51;;;;;;;3.08;1.92;;;5.50;44.60;;;;;;5004051;28;34275;-76
2022/03/15 04:53:18;;;;;;;3.17;2.20;;;5.50;44.70;;;;;;5005307;28;34327;-76
2022/03/15 04:55:45;;;;;;;2.42;2.10;;;5.50;44.70;;;;;;5004414;28;36656;-76
2022/03/15 04:58:12;;;;;;;3.13;1.88;;;5.50;44.80;;;;;;5004093;28;34115;-76
2022/03/15 05:00:38;;;;;;;2.63;2.20;;;5.50;44.80;;;;;;5005087;28;34386;-76
2022/03/15 05:03:03;;;;;;;3.53;2.33;;;5.50;44.90;;;;;;5005100;28;34336;-76
2022/03/15 05:05:29;;;;;;;4.10;2.30;;;5.50;44.80;;;;;;4987521;28;35632;-76
2022/03/15 05:07:55;;;;;;;3.40;2.25;;;5.60;45.00;;;;;;5004030;28;34277;-77
2022/03/15 05:13:08;;;;;;;3.40;2.15;;;5.60;45.20;;;;;;5004898;28;34258;-76
2022/03/15 05:15:34;;;;;;;8.43;2.67;;;5.60;45.50;;;;;;5005022;28;34344;-76
2022/03/15 05:18:01;;;;;;;2.30;2.10;;;5.60;45.60;;;;;;4987361;28;34474;-76
2022/03/15 05:20:30;;;;;;;3.42;2.28;;;5.60;45.60;;;;;;5004508;28;34317;-76
2022/03/15 05:22:56;;;;;;;2.85;1.88;;;5.60;45.90;;;;;;5003610;28;34127;-76
2022/03/15 05:25:22;;;;;;;4.15;1.95;;;5.60;45.90;;;;;;5003277;28;35944;-76
2022/03/15 05:27:49;;;;;;;3.92;1.85;;;5.60;46.10;;;;;;5004148;28;34333;-76
2022/03/15 05:30:16;;;;;;;2.33;1.77;;;5.60;46.10;;;;;;4987816;28;34323;-76
2022/03/15 05:32:43;;;;;;;2.92;2.00;;;5.60;46.00;;;;;;5003472;28;34239;-76
2022/03/15 05:35:09;;;;;;;5.32;1.83;;;5.60;46.10;;;;;;5004656;28;34309;-75
2022/03/15 05:37:35;;;;;;;2.03;1.73;;;5.70;47.30;;;;;;5005287;28;34305;-76
2022/03/15 05:40:01;;;;;;;4.45;2.63;;;5.60;46.50;;;;;;5004433;28;34227;-76
2022/03/15 05:42:28;;;;;;;5.13;2.47;;;5.70;46.70;;;;;;5003701;28;34182;-76
2022/03/15 05:44:54;;;;;;;5.68;2.60;;;5.70;46.90;;;;;;5003252;28;35828;-76
2022/03/15 05:47:20;;;;;;;5.18;2.40;;;5.70;47.00;;;;;;5003709;28;34399;-76
2022/03/15 05:49:46;;;;;;;4.57;2.80;;;5.70;46.70;;;;;;4986911;28;34346;-76
2022/03/15 05:52:12;;;;;;;4.43;2.70;;;5.70;46.70;;;;;;4986728;28;34186;-76
2022/03/15 05:54:38;;;;;;;4.93;2.40;;;5.70;46.80;;;;;;5002839;28;36466;-76
2022/03/15 05:57:04;;;;;;;2.45;2.20;;;5.70;46.80;;;;;;5002327;28;34624;-76
2022/03/15 05:59:30;;;;;;;4.30;2.45;;;5.80;46.70;;;;;;5003532;28;34238;-76
2022/03/15 06:01:56;;;;;;;4.53;2.53;;;5.80;46.60;;;;;;5003067;28;34248;-76
2022/03/15 06:04:25;;;;;;;4.70;3.00;;;5.80;46.80;;;;;;5002791;28;35655;-76
2022/03/15 06:06:55;;;;;;;3.33;2.35;;;5.80;46.70;;;;;;4987196;28;34227;-76
2022/03/15 06:09:22;;;;;;;3.15;2.35;;;5.90;46.80;;;;;;5002907;28;34428;-76
2022/03/15 06:11:48;;;;;;;3.63;2.50;;;5.90;46.90;;;;;;5002577;28;34079;-76
2022/03/15 06:14:14;;;;;;;5.50;2.58;;;5.90;46.90;;;;;;5002440;28;36377;-75
2022/03/15 06:16:40;;;;;;;3.97;2.53;;;5.90;46.90;;;;;;5003183;28;34206;-75
2022/03/15 06:19:06;;;;;;;3.88;2.55;;;5.90;47.00;;;;;;4970394;28;34192;-75
2022/03/15 06:21:32;;;;;;;3.78;2.35;;;5.90;46.90;;;;;;5002790;28;34387;-75
2022/03/15 06:24:00;;;;;;;4.22;2.35;;;6.00;47.00;;;;;;5003525;28;34481;-75
2022/03/15 06:26:26;;;;;;;3.38;2.40;;;6.00;46.90;;;;;;4986358;28;34215;-76
2022/03/15 06:28:53;;;;;;;5.55;2.78;;;6.00;46.90;;;;;;5002256;28;34215;-76
2022/03/15 06:31:20;;;;;;;3.08;2.20;;;6.10;47.30;;;;;;4986232;28;34185;-76
2022/03/15 06:33:47;;;;;;;3.72;2.35;;;6.10;47.20;;;;;;5002105;28;36720;-77
2022/03/15 06:36:15;;;;;;;4.43;2.35;;;6.10;47.10;;;;;;4970644;28;34250;-76
2022/03/15 06:38:42;;;;;;;6.20;2.40;;;6.20;47.10;;;;;;5002786;28;34278;-76
2022/03/15 06:41:10;;;;;;;4.95;2.92;;;6.20;47.20;;;;;;5002358;28;34104;-76
2022/03/15 06:43:38;;;;;;;5.35;2.92;;;6.10;47.20;;;;;;5003846;28;34319;-76
2022/03/15 06:46:04;;;;;;;5.65;2.55;;;6.20;47.20;;;;;;4987568;28;34325;-76
2022/03/15 06:48:30;;;;;;;4.05;2.58;;;6.20;47.30;;;;;;5002732;28;34287;-77
2022/03/15 06:50:56;;;;;;;6.18;2.95;;;6.20;47.40;;;;;;5002372;28;34289;-76
2022/03/15 06:53:22;;;;;;;3.67;2.50;;;6.20;47.30;;;;;;4985988;28;36426;-76
2022/03/15 06:55:48;;;;;;;3.42;2.40;;;6.30;48.10;;;;;;5001746;28;34402;-76
2022/03/15 06:58:14;;;;;;;4.07;2.20;;;6.30;47.50;;;;;;5002611;28;34254;-76
2022/03/15 07:00:40;;;;;;;3.97;2.47;;;6.30;47.40;;;;;;5003906;28;34176;-76
2022/03/15 07:03:06;;;;;;;3.33;2.50;;;6.30;47.30;;;;;;5003873;28;34102;-76
2022/03/15 07:05:33;;;;;;;3.70;2.55;;;6.40;47.50;;;;;;4986046;28;34275;-76
2022/03/15 07:07:59;;;;;;;5.97;2.45;;;6.40;47.50;;;;;;4986777;28;34262;-76
2022/03/15 07:10:25;;;;;;;5.00;2.50;;;6.40;48.00;;;;;;4986064;28;34536;-76
2022/03/15 07:12:51;;;;;;;5.18;2.42;;;6.40;48.00;;;;;;4985804;28;36295;-75
2022/03/15 07:15:17;;;;;;;2.85;2.35;;;6.40;48.10;;;;;;4986170;28;34359;-75
2022/03/15 07:17:53;;;;;;;4.97;2.78;;;6.40;48.30;;;;;;5003331;28;34232;-75
2022/03/15 07:20:20;;;;;;;3.80;2.30;;;6.50;49.70;;;;;;5003625;28;34356;-76
2022/03/15 07:22:46;;;;;;;2.50;2.25;;;6.50;48.70;;;;;;4969434;28;36593;-76
2022/03/15 07:25:12;;;;;;;4.47;2.08;;;6.50;48.70;;;;;;5002938;28;34160;-75
2022/03/15 07:27:38;;;;;;;4.00;2.13;;;6.60;48.70;;;;;;5002946;28;34167;-76
2022/03/15 07:30:05;;;;;;;4.70;2.38;;;6.60;48.60;;;;;;4986370;28;34568;-76
2022/03/15 07:32:31;;;;;;;3.47;2.17;;;6.60;48.40;;;;;;4985845;28;35604;-76
2022/03/15 07:34:58;;;;;;;2.58;2.30;;;6.70;48.60;;;;;;4986042;28;34255;-76
2022/03/15 07:37:24;;;;;;;3.70;2.47;;;6.70;48.70;;;;;;5003707;28;34151;-76
2022/03/15 07:39:50;;;;;;;2.30;2.10;;;6.70;48.80;;;;;;5002489;28;34147;-76
2022/03/15 07:42:16;;;;;;;3.17;2.20;;;6.70;48.80;;;;;;4986077;28;35747;-76
2022/03/15 07:44:43;;;;;;;4.18;2.17;;;6.80;48.80;;;;;;4970956;28;34425;-76
2022/03/15 07:47:10;;;;;;;2.58;2.13;;;6.80;48.60;;;;;;4987708;28;34209;-76
2022/03/15 07:49:36;;;;;;;2.58;2.22;;;6.90;48.80;;;;;;4987562;28;34433;-76
2022/03/15 07:52:03;;;;;;;2.72;2.47;;;6.90;48.80;;;;;;5003935;28;34403;-76
2022/03/15 07:54:30;;;;;;;5.22;2.65;;;6.90;48.90;;;;;;4986526;28;34199;-76
2022/03/15 07:56:55;;;;;;;3.45;2.58;;;6.90;49.10;;;;;;4970172;28;34163;-76
2022/03/15 07:59:24;;;;;;;5.88;2.80;;;6.90;49.00;;;;;;4969837;28;34143;-75
2022/03/15 08:01:50;;;;;;;4.97;2.60;;;7.00;49.20;;;;;;4985728;28;36233;-75
2022/03/15 08:04:16;;;;;;;5.13;2.65;;;7.00;49.10;;;;;;4985344;28;34163;-75
2022/03/15 08:06:42;;;;;;;4.68;2.60;;;7.00;49.10;;;;;;4969986;28;34134;-76
2022/03/15 08:09:08;;;;;;;3.92;2.47;;;7.00;49.20;;;;;;4949412;28;34200;-75
2022/03/15 08:11:35;;;;;;;4.60;2.67;;;7.00;49.20;;;;;;4982380;28;34606;-75
2022/03/15 08:14:01;;;;;;;3.65;2.47;;;7.10;49.20;;;;;;4965352;28;34369;-75
2022/03/15 08:16:28;;;;;;;3.67;2.58;;;7.10;49.20;;;;;;4949679;28;34436;-75
2022/03/15 08:18:54;;;;;;;7.85;2.80;;;7.10;49.10;;;;;;4983118;28;34369;-75
2022/03/15 08:21:22;;;;;;;4.07;2.53;;;7.10;49.20;;;;;;4949424;28;35675;-75
2022/03/15 08:23:48;;;;;;;2.40;2.17;;;7.20;49.30;;;;;;4965312;28;34200;-75
2022/03/15 08:26:14;;;;;;;2.75;2.50;;;7.20;49.30;;;;;;4965118;28;34299;-75
2022/03/15 08:28:41;;;;;;;5.30;2.50;;;7.20;49.20;;;;;;4966091;28;34109;-75
2022/03/15 08:31:07;;;;;;;5.60;2.35;;;7.20;49.30;;;;;;4965165;28;34955;-75
2022/03/15 08:33:34;;;;;;;4.72;2.45;;;7.20;49.20;;;;;;4982636;28;34176;-76
2022/03/15 08:36:00;;;;;;;6.00;2.75;;;7.20;49.30;;;;;;4949773;28;34240;-75
2022/03/15 08:38:26;;;;;;;3.85;3.15;;;7.30;49.40;;;;;;4965620;28;34340;-75
2022/03/15 08:40:52;;;;;;;3.97;3.15;;;7.30;49.50;;;;;;4963644;28;36283;-75
2022/03/15 08:43:18;;;;;;;4.05;2.90;;;7.30;49.50;;;;;;4964976;28;34372;-76
2022/03/15 08:45:44;;;;;;;5.03;2.85;;;7.30;49.50;;;;;;4949752;28;34569;-75
2022/03/15 08:48:10;;;;;;;4.65;2.75;;;7.30;49.40;;;;;;4965014;28;34277;-76
2022/03/15 08:50:36;;;;;;;3.97;2.63;;;7.40;49.40;;;;;;4949086;28;35615;-76
2022/03/15 08:53:02;;;;;;;5.35;2.28;;;7.40;49.40;;;;;;4964318;28;34046;-75
2022/03/15 08:55:29;;;;;;;5.70;2.90;;;7.40;49.40;;;;;;4982618;28;34464;-76
2022/03/15 08:57:56;;;;;;;2.95;2.20;;;7.40;49.40;;;;;;4952198;28;34540;-75
2022/03/15 09:00:22;;;;;;;4.32;2.33;;;7.40;49.50;;;;;;4968231;28;35677;-75
2022/03/15 09:02:51;;;;;;;5.95;2.63;;;7.50;49.60;;;;;;4968803;28;34298;-75
2022/03/15 09:05:19;;;;;;;3.08;2.53;;;7.50;49.90;;;;;;4972181;28;34316;-75
2022/03/15 09:07:53;;;;;;;3.45;2.55;;;7.50;49.70;;;;;;5004332;28;34236;-75
2022/03/15 09:10:21;;;;;;;4.85;2.63;;;7.50;49.90;;;;;;5003875;28;36608;-75
2022/03/15 09:12:49;;;;;;;4.63;2.30;;;7.50;49.90;;;;;;5004217;28;34264;-75
2022/03/15 09:15:15;;;;;;;3.65;2.20;;;7.50;49.80;;;;;;5004173;28;34342;-75
2022/03/15 09:17:42;;;;;;;5.28;2.20;;;7.50;50.00;;;;;;5005044;28;34254;-75
2022/03/15 09:20:09;;;;;;;4.07;2.45;;;7.50;50.00;;;;;;5002951;28;36228;-75
2022/03/15 09:22:35;;;;;;;4.63;3.03;;;7.50;50.30;;;;;;5004676;28;34407;-75
2022/03/15 09:25:11;;;;;;;2.70;2.28;;;7.50;50.30;;;;;;5003997;28;34374;-75
2022/03/15 09:27:38;;;;;;;2.50;2.10;;;7.60;50.50;;;;;;5004355;28;34178;-75
2022/03/15 09:30:05;;;;;;;6.55;2.38;;;7.60;50.70;;;;;;5004422;28;36434;-75
2022/03/15 09:32:31;;;;;;;2.08;1.83;;;7.60;50.70;;;;;;5006566;28;34338;-75
2022/03/15 09:34:57;;;;;;;4.20;2.33;;;7.60;50.80;;;;;;5006920;28;34117;-76
2022/03/15 09:37:25;;;;;;;4.15;2.30;;;7.60;50.70;;;;;;5006463;28;34102;-77
2022/03/15 09:39:54;;;;;;;3.70;2.13;;;7.60;51.10;;;;;;4990902;28;36100;-76
2022/03/15 09:42:22;;;;;;;4.32;2.58;;;7.60;51.40;;;;;;5007993;28;34209;-76
2022/03/15 09:44:48;;;;;;;6.50;2.38;;;7.60;51.70;;;;;;5004716;28;34387;-76
2022/03/15 09:47:17;;;;;;;3.90;2.50;;;7.60;51.40;;;;;;5002683;28;34136;-75
2022/03/15 09:49:45;;;;;;;4.15;2.53;;;7.60;51.20;;;;;;5002875;28;35504;-75
2022/03/15 09:52:11;;;;;;;4.10;2.65;;;7.60;51.00;;;;;;4970680;28;34264;-75
2022/03/15 09:54:38;;;;;;;3.42;2.63;;;7.70;51.10;;;;;;4987166;28;34104;-76
2022/03/15 09:57:05;;;;;;;4.43;2.80;;;7.70;51.00;;;;;;5003148;28;34501;-76
2022/03/15 09:59:32;;;;;;;4.65;2.60;;;7.70;51.00;;;;;;5003083;28;35699;-76
2022/03/15 10:01:59;;;;;;;5.03;2.55;;;7.80;51.00;;;;;;4970210;28;34212;-76
2022/03/15 10:04:26;;;;;;;5.53;2.58;;;7.80;51.00;;;;;;5004552;28;34552;-76
2022/03/15 10:06:53;;;;;;;2.75;2.45;;;7.90;51.00;;;;;;5002508;28;34246;-76
2022/03/15 10:09:21;;;;;;;3.70;2.72;;;7.90;50.90;;;;;;4985373;28;35555;-76
2022/03/15 10:11:47;;;;;;;3.50;2.72;;;8.00;50.90;;;;;;5002329;28;34289;-75
2022/03/15 10:14:14;;;;;;;2.97;2.58;;;8.00;50.80;;;;;;5002530;28;34234;-75
2022/03/15 10:16:41;;;;;;;3.97;3.00;;;8.00;50.70;;;;;;5003219;28;34191;-76
2022/03/15 10:19:10;;;;;;;5.03;2.50;;;8.10;50.70;;;;;;5002601;28;35430;-76
2022/03/15 10:21:50;;;;;;;3.13;2.63;;;8.20;50.60;;;;;;5002900;28;34369;-76
2022/03/15 10:24:20;;;;;;;2.95;2.35;;;8.20;50.60;;;;;;4988113;28;34023;-76
2022/03/15 10:26:47;;;;;;;5.60;2.63;;;8.30;50.60;;;;;;4987095;28;34279;-76
2022/03/15 10:29:15;;;;;;;3.13;2.40;;;8.40;50.60;;;;;;5003372;28;35151;-76
2022/03/15 10:31:42;;;;;;;3.25;2.40;;;8.40;50.50;;;;;;5003129;28;34109;-76
2022/03/15 10:34:10;;;;;;;3.20;2.78;;;8.50;50.50;;;;;;5002226;28;34361;-76
2022/03/15 10:36:40;;;;;;;4.60;2.40;;;8.60;50.40;;;;;;5004613;28;34365;-76
2022/03/15 10:39:08;;;;;;;3.00;2.47;;;8.60;50.40;;;;;;5003890;28;34757;-76
2022/03/15 10:41:51;;;;;;;3.20;2.50;;;8.70;50.40;;;;;;4986379;28;34177;-76
2022/03/15 10:44:22;;;;;;;4.18;2.60;;;8.80;51.40;;;;;;5002374;28;34373;-76
2022/03/15 10:47:06;;;;;;;5.10;2.58;;;8.80;50.20;;;;;;4985666;28;34246;-76
2022/03/15 10:49:49;;;;;;;3.05;2.50;;;8.80;51.30;;;;;;5003713;28;34434;-76
2022/03/15 10:52:31;;;;;;;4.40;2.58;;;8.80;50.00;;;;;;5000346;28;34119;-76
2022/03/15 10:55:11;;;;;;;4.45;2.47;;;8.90;50.90;;;;;;4995398;28;34336;-75
2022/03/15 10:57:47;;;;;;;3.70;2.72;;;8.90;50.60;;;;;;4984552;28;34484;-76
2022/03/15 11:00:15;;;;;;;6.03;2.25;;;9.00;50.50;;;;;;4984708;28;34171;-76
2022/03/15 11:02:43;;;;;;;3.65;2.55;;;9.00;50.00;;;;;;4984507;28;34250;-76
2022/03/15 11:05:10;;;;;;;2.90;2.13;;;9.00;50.00;;;;;;4982220;28;34355;-76
2022/03/15 11:07:40;;;;;;;7.03;2.00;;;9.00;49.80;;;;;;4966695;28;34290;-76
2022/03/15 11:10:12;;;;;;;2.22;2.00;;;9.00;50.00;;;;;;4966308;28;35756;-76
2022/03/15 11:12:52;;;;;;;5.63;2.22;;;9.00;49.90;;;;;;4983458;28;34257;-76
2022/03/15 11:15:22;;;;;;;4.28;2.50;;;9.00;49.80;;;;;;4983078;28;34335;-76
2022/03/15 11:17:49;;;;;;;6.38;3.10;;;9.10;49.90;;;;;;4950923;28;34340;-76
2022/03/15 11:20:16;;;;;;;2.40;2.20;;;9.10;49.90;;;;;;4965819;28;36563;-76
2022/03/15 11:22:44;;;;;;;2.70;2.00;;;9.10;49.80;;;;;;4983873;28;34175;-76
2022/03/15 11:25:17;;;;;;;4.15;2.33;;;9.10;49.80;;;;;;4949526;28;34214;-76
2022/03/15 11:27:44;;;;;;;4.80;2.40;;;9.10;50.00;;;;;;4983271;28;34233;-76
2022/03/15 11:30:14;;;;;;;3.92;2.60;;;9.10;49.90;;;;;;4965648;28;35921;-76
2022/03/15 11:32:41;;;;;;;4.30;2.70;;;9.10;50.00;;;;;;4966031;28;34471;-75
2022/03/15 11:35:09;;;;;;;3.40;2.33;;;9.10;50.00;;;;;;4949876;28;34539;-76
2022/03/15 11:37:37;;;;;;;2.97;2.35;;;9.10;50.10;;;;;;4966141;28;34208;-76
2022/03/15 11:40:06;;;;;;;5.18;2.47;;;9.10;50.20;;;;;;4949629;28;35709;-75
2022/03/15 11:42:35;;;;;;;4.95;2.33;;;9.10;50.20;;;;;;4949651;28;34327;-76
2022/03/15 11:45:22;;;;;;;3.53;2.13;;;9.20;50.30;;;;;;4965388;28;34306;-76
2022/03/15 11:48:02;;;;;;;3.47;2.35;;;9.10;51.20;;;;;;4949728;28;34296;-76
2022/03/15 11:50:53;;;;;;;5.57;2.58;;;9.20;50.70;;;;;;4949932;28;34252;-75
2022/03/15 11:53:40;;;;;;;4.50;2.70;;;9.20;51.30;;;;;;4936822;28;34315;-76
2022/03/15 11:56:30;;;;;;;5.55;2.50;;;9.20;51.30;;;;;;4949466;28;34497;-76
2022/03/15 11:58:58;;;;;;;5.32;2.40;;;9.20;50.70;;;;;;4983057;28;34190;-76
2022/03/15 12:01:24;;;;;;;3.45;2.40;;;9.20;50.20;;;;;;4949082;28;35661;-76
2022/03/15 12:03:54;;;;;;;3.92;2.20;;;9.30;50.00;;;;;;4949472;28;34109;-76
2022/03/15 12:06:24;;;;;;;7.28;2.45;;;9.30;50.10;;;;;;4965441;28;34132;-75
2022/03/15 12:08:55;;;;;;;4.18;2.40;;;9.30;50.30;;;;;;4965301;28;34568;-76
2022/03/15 12:11:33;;;;;;;3.70;2.60;;;9.30;49.90;;;;;;4965575;28;34803;-76
2022/03/15 12:14:11;;;;;;;6.05;2.78;;;9.40;50.20;;;;;;4965982;28;34221;-76
2022/03/15 12:16:46;;;;;;;2.45;2.25;;;9.40;50.40;;;;;;4949606;28;34260;-76
2022/03/15 12:19:34;;;;;;;2.63;2.08;;;9.40;50.10;;;;;;4965275;28;34531;-76
2022/03/15 12:22:02;;;;;;;5.95;2.45;;;9.40;49.80;;;;;;4964609;28;36288;-76
2022/03/15 12:24:32;;;;;;;3.80;2.40;;;9.50;49.70;;;;;;4965191;28;34226;-76
2022/03/15 12:27:02;;;;;;;5.03;2.50;;;9.50;49.90;;;;;;4964894;28;34251;-75
2022/03/15 12:29:29;;;;;;;4.45;2.60;;;9.60;49.70;;;;;;4949318;28;34354;-76
2022/03/15 12:31:57;;;;;;;4.22;2.40;;;9.60;49.70;;;;;;4966578;28;35596;-76
2022/03/15 12:34:26;;;;;;;3.38;2.55;;;9.60;49.80;;;;;;4952443;28;34260;-76
2022/03/15 12:36:58;;;;;;;4.82;2.80;;;9.60;49.70;;;;;;4952407;28;34279;-76
2022/03/15 12:39:30;;;;;;;3.22;2.22;;;9.70;49.70;;;;;;4968559;28;34315;-76
2022/03/15 12:42:13;;;;;;;3.72;2.25;;;9.60;49.60;;;;;;4985670;28;34349;-76
2022/03/15 12:44:43;;;;;;;4.15;2.50;;;9.70;50.60;;;;;;4968561;28;34263;-76
2022/03/15 12:47:10;;;;;;;4.22;2.30;;;9.70;49.70;;;;;;4985552;28;34530;-76
2022/03/15 12:49:37;;;;;;;3.75;2.38;;;9.70;49.60;;;;;;4968650;28;34239;-76
2022/03/15 12:52:18;;;;;;;3.38;2.42;;;9.70;49.60;;;;;;4968024;28;35721;-76
2022/03/15 12:54:45;;;;;;;3.15;2.10;;;9.80;50.40;;;;;;4986145;28;34091;-76
2022/03/15 12:57:14;;;;;;;3.63;2.40;;;9.70;49.60;;;;;;4987191;28;34064;-76
2022/03/15 12:59:48;;;;;;;2.80;2.13;;;9.70;49.60;;;;;;4986908;28;34051;-76
2022/03/15 13:02:16;;;;;;;2.90;2.40;;;9.70;49.60;;;;;;4967726;28;35815;-76